sensor_id;sensor_type;location;lat;lon;timestamp;P1;durP1;ratioP1;P2;durP2;ratioP2
12848;SDS011;6493;50.928;7.172;2023-08-12T00:02:07;1.33;;;1.23;;
12848;SDS011;6493;50.928;7.172;2023-08-12T00:07:11;1.43;;;1.30;;
12848;SDS011;6493;50.928;7.172;2023-08-12T00:12:15;0.90;;;0.90;;
12848;SDS011;6493;50.928;7.172;2023-08-12T00:17:19;1.30;;;1.20;;
12848;SDS011;6493;50.928;7.172;2023-08-12T00:22:23;1.40;;;1.30;;
12848;SDS011;6493;50.928;7.172;2023-08-12T00:27:27;1.33;;;1.23;;
12848;SDS011;6493;50.928;7.172;2023-08-12T00:32:32;1.60;;;1.50;;
12848;SDS011;6493;50.928;7.172;2023-08-12T00:37:36;1.27;;;1.17;;
12848;SDS011;6493;50.928;7.172;2023-08-12T00:42:40;1.40;;;1.30;;
12848;SDS011;6493;50.928;7.172;2023-08-12T00:47:45;1.17;;;1.07;;
12848;SDS011;6493;50.928;7.172;2023-08-12T00:52:49;1.30;;;1.20;;
12848;SDS011;6493;50.928;7.172;2023-08-12T00:57:53;1.23;;;1.13;;
12848;SDS011;6493;50.928;7.172;2023-08-12T01:02:58;1.20;;;1.10;;
12848;SDS011;6493;50.928;7.172;2023-08-12T01:08:04;0.93;;;0.93;;
12848;SDS011;6493;50.928;7.172;2023-08-12T01:13:11;1.93;;;1.07;;
12848;SDS011;6493;50.928;7.172;2023-08-12T01:18:24;0.90;;;0.87;;
12848;SDS011;6493;50.928;7.172;2023-08-12T01:23:30;1.17;;;1.07;;
12848;SDS011;6493;50.928;7.172;2023-08-12T01:28:34;1.27;;;1.10;;
12848;SDS011;6493;50.928;7.172;2023-08-12T01:33:39;1.30;;;1.20;;
12848;SDS011;6493;50.928;7.172;2023-08-12T01:38:51;1.00;;;1.00;;
12848;SDS011;6493;50.928;7.172;2023-08-12T01:43:55;1.23;;;1.10;;
12848;SDS011;6493;50.928;7.172;2023-08-12T01:48:59;1.27;;;1.10;;
12848;SDS011;6493;50.928;7.172;2023-08-12T01:54:04;1.60;;;0.90;;
12848;SDS011;6493;50.928;7.172;2023-08-12T01:59:08;1.10;;;1.00;;
12848;SDS011;6493;50.928;7.172;2023-08-12T02:04:12;1.00;;;0.90;;
12848;SDS011;6493;50.928;7.172;2023-08-12T02:09:17;1.00;;;0.90;;
12848;SDS011;6493;50.928;7.172;2023-08-12T02:14:20;0.80;;;0.80;;
12848;SDS011;6493;50.928;7.172;2023-08-12T02:19:24;0.73;;;0.73;;
12848;SDS011;6493;50.928;7.172;2023-08-12T02:24:29;0.57;;;0.50;;
12848;SDS011;6493;50.928;7.172;2023-08-12T02:29:33;0.80;;;0.80;;
12848;SDS011;6493;50.928;7.172;2023-08-12T02:34:36;0.90;;;0.80;;
12848;SDS011;6493;50.928;7.172;2023-08-12T02:39:41;0.90;;;0.80;;
12848;SDS011;6493;50.928;7.172;2023-08-12T02:44:45;0.93;;;0.70;;
12848;SDS011;6493;50.928;7.172;2023-08-12T02:49:49;0.97;;;0.93;;
12848;SDS011;6493;50.928;7.172;2023-08-12T02:54:54;0.70;;;0.70;;
12848;SDS011;6493;50.928;7.172;2023-08-12T02:59:58;0.67;;;0.67;;
12848;SDS011;6493;50.928;7.172;2023-08-12T03:05:02;0.73;;;0.73;;
12848;SDS011;6493;50.928;7.172;2023-08-12T03:10:08;0.83;;;0.63;;
12848;SDS011;6493;50.928;7.172;2023-08-12T03:15:13;1.20;;;0.90;;
12848;SDS011;6493;50.928;7.172;2023-08-12T03:20:18;1.07;;;0.83;;
12848;SDS011;6493;50.928;7.172;2023-08-12T03:25:23;0.60;;;0.60;;
12848;SDS011;6493;50.928;7.172;2023-08-12T03:30:27;0.70;;;0.70;;
12848;SDS011;6493;50.928;7.172;2023-08-12T03:35:32;1.30;;;0.93;;
12848;SDS011;6493;50.928;7.172;2023-08-12T03:40:38;0.70;;;0.70;;
12848;SDS011;6493;50.928;7.172;2023-08-12T03:45:45;0.80;;;0.80;;
12848;SDS011;6493;50.928;7.172;2023-08-12T03:50:52;0.70;;;0.70;;
12848;SDS011;6493;50.928;7.172;2023-08-12T03:55:57;0.70;;;0.70;;
12848;SDS011;6493;50.928;7.172;2023-08-12T04:01:02;0.80;;;0.70;;
12848;SDS011;6493;50.928;7.172;2023-08-12T04:06:06;0.97;;;0.70;;
12848;SDS011;6493;50.928;7.172;2023-08-12T04:11:11;1.23;;;0.70;;
12848;SDS011;6493;50.928;7.172;2023-08-12T04:16:16;0.80;;;0.80;;
12848;SDS011;6493;50.928;7.172;2023-08-12T04:21:19;0.60;;;0.60;;
12848;SDS011;6493;50.928;7.172;2023-08-12T04:26:24;0.80;;;0.80;;
12848;SDS011;6493;50.928;7.172;2023-08-12T04:31:28;0.87;;;0.83;;
12848;SDS011;6493;50.928;7.172;2023-08-12T04:36:32;1.20;;;1.10;;
12848;SDS011;6493;50.928;7.172;2023-08-12T04:41:40;1.07;;;0.97;;
12848;SDS011;6493;50.928;7.172;2023-08-12T04:46:45;0.70;;;0.70;;
12848;SDS011;6493;50.928;7.172;2023-08-12T04:51:51;1.20;;;1.10;;
12848;SDS011;6493;50.928;7.172;2023-08-12T04:56:57;1.03;;;0.97;;
12848;SDS011;6493;50.928;7.172;2023-08-12T05:02:01;0.93;;;0.87;;
12848;SDS011;6493;50.928;7.172;2023-08-12T05:07:19;0.90;;;0.90;;
12848;SDS011;6493;50.928;7.172;2023-08-12T05:12:24;1.00;;;0.80;;
12848;SDS011;6493;50.928;7.172;2023-08-12T05:17:28;0.67;;;0.67;;
12848;SDS011;6493;50.928;7.172;2023-08-12T05:22:32;0.90;;;0.90;;
12848;SDS011;6493;50.928;7.172;2023-08-12T05:27:37;1.37;;;1.00;;
12848;SDS011;6493;50.928;7.172;2023-08-12T05:32:41;0.83;;;0.83;;
12848;SDS011;6493;50.928;7.172;2023-08-12T05:37:44;0.83;;;0.73;;
12848;SDS011;6493;50.928;7.172;2023-08-12T05:42:49;0.50;;;0.50;;
12848;SDS011;6493;50.928;7.172;2023-08-12T05:47:53;1.07;;;0.97;;
12848;SDS011;6493;50.928;7.172;2023-08-12T05:52:56;0.90;;;0.90;;
12848;SDS011;6493;50.928;7.172;2023-08-12T05:58:02;0.80;;;0.80;;
12848;SDS011;6493;50.928;7.172;2023-08-12T06:03:06;1.00;;;1.00;;
12848;SDS011;6493;50.928;7.172;2023-08-12T06:08:10;0.70;;;0.70;;
12848;SDS011;6493;50.928;7.172;2023-08-12T06:13:15;0.90;;;0.90;;
12848;SDS011;6493;50.928;7.172;2023-08-12T06:18:19;1.10;;;1.03;;
12848;SDS011;6493;50.928;7.172;2023-08-12T06:23:22;1.00;;;0.90;;
12848;SDS011;6493;50.928;7.172;2023-08-12T06:28:30;1.00;;;0.90;;
12848;SDS011;6493;50.928;7.172;2023-08-12T06:33:33;0.80;;;0.80;;
12848;SDS011;6493;50.928;7.172;2023-08-12T06:38:37;1.03;;;0.93;;
12848;SDS011;6493;50.928;7.172;2023-08-12T06:43:42;0.77;;;0.77;;
12848;SDS011;6493;50.928;7.172;2023-08-12T06:48:46;0.70;;;0.70;;
12848;SDS011;6493;50.928;7.172;2023-08-12T06:53:49;0.73;;;0.60;;
12848;SDS011;6493;50.928;7.172;2023-08-12T06:58:54;0.93;;;0.90;;
12848;SDS011;6493;50.928;7.172;2023-08-12T07:03:58;0.80;;;0.80;;
12848;SDS011;6493;50.928;7.172;2023-08-12T07:09:02;0.80;;;0.80;;
12848;SDS011;6493;50.928;7.172;2023-08-12T07:14:07;0.80;;;0.80;;
12848;SDS011;6493;50.928;7.172;2023-08-12T07:19:11;0.77;;;0.77;;
12848;SDS011;6493;50.928;7.172;2023-08-12T07:24:17;0.87;;;0.87;;
12848;SDS011;6493;50.928;7.172;2023-08-12T07:29:22;1.13;;;1.03;;
12848;SDS011;6493;50.928;7.172;2023-08-12T07:34:26;1.03;;;0.80;;
12848;SDS011;6493;50.928;7.172;2023-08-12T07:39:32;1.40;;;1.00;;
12848;SDS011;6493;50.928;7.172;2023-08-12T07:44:37;0.80;;;0.80;;
12848;SDS011;6493;50.928;7.172;2023-08-12T07:49:41;0.77;;;0.70;;
12848;SDS011;6493;50.928;7.172;2023-08-12T07:54:45;0.73;;;0.70;;
12848;SDS011;6493;50.928;7.172;2023-08-12T07:59:50;0.97;;;0.80;;
12848;SDS011;6493;50.928;7.172;2023-08-12T08:04:54;0.70;;;0.70;;
12848;SDS011;6493;50.928;7.172;2023-08-12T08:09:57;0.80;;;0.80;;
12848;SDS011;6493;50.928;7.172;2023-08-12T08:15:02;1.03;;;0.90;;
12848;SDS011;6493;50.928;7.172;2023-08-12T08:20:07;0.77;;;0.73;;
12848;SDS011;6493;50.928;7.172;2023-08-12T08:25:12;0.97;;;0.80;;
12848;SDS011;6493;50.928;7.172;2023-08-12T08:30:17;0.70;;;0.70;;
12848;SDS011;6493;50.928;7.172;2023-08-12T08:35:21;1.03;;;0.93;;
12848;SDS011;6493;50.928;7.172;2023-08-12T08:40:25;0.90;;;0.90;;
12848;SDS011;6493;50.928;7.172;2023-08-12T08:45:31;0.70;;;0.70;;
12848;SDS011;6493;50.928;7.172;2023-08-12T08:50:35;0.70;;;0.70;;
12848;SDS011;6493;50.928;7.172;2023-08-12T08:55:40;0.80;;;0.63;;
12848;SDS011;6493;50.928;7.172;2023-08-12T09:00:45;0.57;;;0.57;;
12848;SDS011;6493;50.928;7.172;2023-08-12T09:05:49;0.50;;;0.50;;
12848;SDS011;6493;50.928;7.172;2023-08-12T09:10:54;0.50;;;0.50;;
12848;SDS011;6493;50.928;7.172;2023-08-12T09:16:00;0.50;;;0.50;;
12848;SDS011;6493;50.928;7.172;2023-08-12T09:21:04;0.43;;;0.43;;
12848;SDS011;6493;50.928;7.172;2023-08-12T09:26:11;0.60;;;0.43;;
12848;SDS011;6493;50.928;7.172;2023-08-12T09:31:25;0.50;;;0.50;;
12848;SDS011;6493;50.928;7.172;2023-08-12T09:36:30;0.60;;;0.60;;
12848;SDS011;6493;50.928;7.172;2023-08-12T09:41:33;0.60;;;0.60;;
12848;SDS011;6493;50.928;7.172;2023-08-12T09:46:39;0.60;;;0.60;;
12848;SDS011;6493;50.928;7.172;2023-08-12T09:51:42;0.90;;;0.60;;
12848;SDS011;6493;50.928;7.172;2023-08-12T09:56:46;0.70;;;0.70;;
12848;SDS011;6493;50.928;7.172;2023-08-12T10:01:53;0.67;;;0.67;;
12848;SDS011;6493;50.928;7.172;2023-08-12T10:06:57;0.83;;;0.83;;
12848;SDS011;6493;50.928;7.172;2023-08-12T10:12:02;1.20;;;0.80;;
12848;SDS011;6493;50.928;7.172;2023-08-12T10:17:07;0.60;;;0.60;;
12848;SDS011;6493;50.928;7.172;2023-08-12T10:22:12;0.80;;;0.80;;
12848;SDS011;6493;50.928;7.172;2023-08-12T10:27:17;0.73;;;0.60;;
12848;SDS011;6493;50.928;7.172;2023-08-12T10:32:23;1.30;;;0.50;;
12848;SDS011;6493;50.928;7.172;2023-08-12T10:37:27;0.70;;;0.70;;
12848;SDS011;6493;50.928;7.172;2023-08-12T10:42:42;0.87;;;0.87;;
12848;SDS011;6493;50.928;7.172;2023-08-12T10:53:22;0.70;;;0.70;;
12848;SDS011;6493;50.928;7.172;2023-08-12T10:58:33;0.73;;;0.73;;
12848;SDS011;6493;50.928;7.172;2023-08-12T11:03:41;1.53;;;0.90;;
12848;SDS011;6493;50.928;7.172;2023-08-12T11:08:46;0.60;;;0.60;;
12848;SDS011;6493;50.928;7.172;2023-08-12T11:13:52;0.50;;;0.50;;
12848;SDS011;6493;50.928;7.172;2023-08-12T11:18:57;0.70;;;0.60;;
12848;SDS011;6493;50.928;7.172;2023-08-12T11:24:02;0.50;;;0.50;;
12848;SDS011;6493;50.928;7.172;2023-08-12T11:29:08;0.40;;;0.40;;
12848;SDS011;6493;50.928;7.172;2023-08-12T11:34:13;0.50;;;0.50;;
12848;SDS011;6493;50.928;7.172;2023-08-12T11:39:18;0.50;;;0.50;;
12848;SDS011;6493;50.928;7.172;2023-08-12T11:44:22;0.63;;;0.40;;
12848;SDS011;6493;50.928;7.172;2023-08-12T11:49:27;0.60;;;0.50;;
12848;SDS011;6493;50.928;7.172;2023-08-12T11:54:30;0.83;;;0.40;;
12848;SDS011;6493;50.928;7.172;2023-08-12T11:59:35;0.57;;;0.53;;
12848;SDS011;6493;50.928;7.172;2023-08-12T12:04:42;0.43;;;0.43;;
12848;SDS011;6493;50.928;7.172;2023-08-12T12:09:46;0.50;;;0.50;;
12848;SDS011;6493;50.928;7.172;2023-08-12T12:14:50;0.37;;;0.37;;
12848;SDS011;6493;50.928;7.172;2023-08-12T12:19:57;0.50;;;0.50;;
12848;SDS011;6493;50.928;7.172;2023-08-12T12:25:05;0.40;;;0.40;;
12848;SDS011;6493;50.928;7.172;2023-08-12T12:30:10;0.43;;;0.43;;
12848;SDS011;6493;50.928;7.172;2023-08-12T12:35:16;0.83;;;0.30;;
12848;SDS011;6493;50.928;7.172;2023-08-12T12:40:20;1.23;;;0.30;;
12848;SDS011;6493;50.928;7.172;2023-08-12T12:45:23;0.50;;;0.50;;
12848;SDS011;6493;50.928;7.172;2023-08-12T12:50:28;0.30;;;0.30;;
12848;SDS011;6493;50.928;7.172;2023-08-12T12:55:32;0.30;;;0.30;;
12848;SDS011;6493;50.928;7.172;2023-08-12T13:00:36;0.40;;;0.40;;
12848;SDS011;6493;50.928;7.172;2023-08-12T13:05:40;0.40;;;0.40;;
12848;SDS011;6493;50.928;7.172;2023-08-12T13:10:44;0.30;;;0.30;;
12848;SDS011;6493;50.928;7.172;2023-08-12T13:15:48;0.40;;;0.40;;
12848;SDS011;6493;50.928;7.172;2023-08-12T13:20:53;0.30;;;0.30;;
12848;SDS011;6493;50.928;7.172;2023-08-12T13:25:57;0.27;;;0.27;;
12848;SDS011;6493;50.928;7.172;2023-08-12T13:31:00;0.20;;;0.20;;
12848;SDS011;6493;50.928;7.172;2023-08-12T13:36:06;0.20;;;0.20;;
12848;SDS011;6493;50.928;7.172;2023-08-12T13:41:09;0.40;;;0.40;;
12848;SDS011;6493;50.928;7.172;2023-08-12T13:46:13;0.20;;;0.20;;
12848;SDS011;6493;50.928;7.172;2023-08-12T13:51:18;0.37;;;0.37;;
12848;SDS011;6493;50.928;7.172;2023-08-12T13:56:22;0.40;;;0.40;;
12848;SDS011;6493;50.928;7.172;2023-08-12T14:01:25;0.27;;;0.27;;
12848;SDS011;6493;50.928;7.172;2023-08-12T14:06:31;0.20;;;0.20;;
12848;SDS011;6493;50.928;7.172;2023-08-12T14:11:35;1.10;;;0.40;;
12848;SDS011;6493;50.928;7.172;2023-08-12T14:16:38;0.23;;;0.23;;
12848;SDS011;6493;50.928;7.172;2023-08-12T14:21:43;0.30;;;0.30;;
12848;SDS011;6493;50.928;7.172;2023-08-12T14:26:47;0.30;;;0.30;;
12848;SDS011;6493;50.928;7.172;2023-08-12T14:31:51;0.20;;;0.20;;
12848;SDS011;6493;50.928;7.172;2023-08-12T14:36:56;0.20;;;0.20;;
12848;SDS011;6493;50.928;7.172;2023-08-12T14:42:00;0.20;;;0.20;;
12848;SDS011;6493;50.928;7.172;2023-08-12T14:47:06;0.30;;;0.30;;
12848;SDS011;6493;50.928;7.172;2023-08-12T14:52:16;0.40;;;0.40;;
12848;SDS011;6493;50.928;7.172;2023-08-12T14:57:21;0.20;;;0.20;;
12848;SDS011;6493;50.928;7.172;2023-08-12T15:02:24;0.30;;;0.30;;
12848;SDS011;6493;50.928;7.172;2023-08-12T15:07:29;0.27;;;0.27;;
12848;SDS011;6493;50.928;7.172;2023-08-12T15:12:41;0.20;;;0.20;;
12848;SDS011;6493;50.928;7.172;2023-08-12T15:18:04;0.20;;;0.20;;
12848;SDS011;6493;50.928;7.172;2023-08-12T15:23:29;0.20;;;0.20;;
12848;SDS011;6493;50.928;7.172;2023-08-12T15:28:54;0.30;;;0.30;;
12848;SDS011;6493;50.928;7.172;2023-08-12T15:34:18;0.27;;;0.27;;
12848;SDS011;6493;50.928;7.172;2023-08-12T15:39:43;0.20;;;0.20;;
12848;SDS011;6493;50.928;7.172;2023-08-12T15:45:05;0.30;;;0.30;;
12848;SDS011;6493;50.928;7.172;2023-08-12T15:50:28;0.23;;;0.23;;
12848;SDS011;6493;50.928;7.172;2023-08-12T15:55:51;0.20;;;0.20;;
12848;SDS011;6493;50.928;7.172;2023-08-12T16:01:13;0.30;;;0.30;;
12848;SDS011;6493;50.928;7.172;2023-08-12T16:06:35;0.30;;;0.30;;
12848;SDS011;6493;50.928;7.172;2023-08-12T16:11:58;0.30;;;0.30;;
12848;SDS011;6493;50.928;7.172;2023-08-12T16:17:20;0.30;;;0.30;;
12848;SDS011;6493;50.928;7.172;2023-08-12T16:22:44;0.20;;;0.20;;
12848;SDS011;6493;50.928;7.172;2023-08-12T16:28:09;1.03;;;0.30;;
12848;SDS011;6493;50.928;7.172;2023-08-12T16:33:32;0.20;;;0.20;;
12848;SDS011;6493;50.928;7.172;2023-08-12T16:38:56;0.20;;;0.20;;
12848;SDS011;6493;50.928;7.172;2023-08-12T16:44:20;0.23;;;0.23;;
12848;SDS011;6493;50.928;7.172;2023-08-12T16:49:42;0.50;;;0.40;;
12848;SDS011;6493;50.928;7.172;2023-08-12T16:55:04;0.30;;;0.30;;
12848;SDS011;6493;50.928;7.172;2023-08-12T17:00:28;0.50;;;0.40;;
12848;SDS011;6493;50.928;7.172;2023-08-12T17:05:50;0.40;;;0.40;;
12848;SDS011;6493;50.928;7.172;2023-08-12T17:11:12;0.30;;;0.30;;
12848;SDS011;6493;50.928;7.172;2023-08-12T17:16:35;0.27;;;0.27;;
12848;SDS011;6493;50.928;7.172;2023-08-12T17:21:58;0.30;;;0.30;;
12848;SDS011;6493;50.928;7.172;2023-08-12T17:27:20;0.50;;;0.50;;
12848;SDS011;6493;50.928;7.172;2023-08-12T17:32:43;0.50;;;0.50;;
12848;SDS011;6493;50.928;7.172;2023-08-12T17:38:05;0.30;;;0.30;;
12848;SDS011;6493;50.928;7.172;2023-08-12T17:43:28;0.40;;;0.40;;
12848;SDS011;6493;50.928;7.172;2023-08-12T17:48:51;0.40;;;0.40;;
12848;SDS011;6493;50.928;7.172;2023-08-12T17:54:13;0.40;;;0.40;;
12848;SDS011;6493;50.928;7.172;2023-08-12T17:59:35;3.33;;;0.50;;
12848;SDS011;6493;50.928;7.172;2023-08-12T18:04:59;0.93;;;0.40;;
12848;SDS011;6493;50.928;7.172;2023-08-12T18:10:20;0.43;;;0.43;;
12848;SDS011;6493;50.928;7.172;2023-08-12T18:15:43;0.60;;;0.60;;
12848;SDS011;6493;50.928;7.172;2023-08-12T18:21:07;1.33;;;0.70;;
12848;SDS011;6493;50.928;7.172;2023-08-12T18:26:28;0.60;;;0.40;;
12848;SDS011;6493;50.928;7.172;2023-08-12T18:31:51;0.57;;;0.50;;
12848;SDS011;6493;50.928;7.172;2023-08-12T18:37:14;0.40;;;0.40;;
12848;SDS011;6493;50.928;7.172;2023-08-12T18:42:36;0.43;;;0.33;;
12848;SDS011;6493;50.928;7.172;2023-08-12T18:47:59;0.30;;;0.30;;
12848;SDS011;6493;50.928;7.172;2023-08-12T18:53:22;0.30;;;0.30;;
12848;SDS011;6493;50.928;7.172;2023-08-12T18:58:44;0.40;;;0.40;;
12848;SDS011;6493;50.928;7.172;2023-08-12T19:04:06;0.67;;;0.60;;
12848;SDS011;6493;50.928;7.172;2023-08-12T19:09:29;0.40;;;0.40;;
12848;SDS011;6493;50.928;7.172;2023-08-12T19:14:52;0.37;;;0.37;;
12848;SDS011;6493;50.928;7.172;2023-08-12T19:20:13;0.40;;;0.40;;
12848;SDS011;6493;50.928;7.172;2023-08-12T19:25:37;0.50;;;0.50;;
12848;SDS011;6493;50.928;7.172;2023-08-12T19:30:59;0.60;;;0.40;;
12848;SDS011;6493;50.928;7.172;2023-08-12T19:36:21;0.47;;;0.40;;
12848;SDS011;6493;50.928;7.172;2023-08-12T19:41:44;0.40;;;0.40;;
12848;SDS011;6493;50.928;7.172;2023-08-12T19:47:06;0.60;;;0.60;;
12848;SDS011;6493;50.928;7.172;2023-08-12T19:52:28;0.50;;;0.50;;
12848;SDS011;6493;50.928;7.172;2023-08-12T19:57:52;0.50;;;0.50;;
12848;SDS011;6493;50.928;7.172;2023-08-12T20:03:14;0.50;;;0.50;;
12848;SDS011;6493;50.928;7.172;2023-08-12T20:08:37;0.57;;;0.50;;
12848;SDS011;6493;50.928;7.172;2023-08-12T20:14:01;0.50;;;0.50;;
12848;SDS011;6493;50.928;7.172;2023-08-12T20:19:24;0.43;;;0.43;;
12848;SDS011;6493;50.928;7.172;2023-08-12T20:24:46;0.60;;;0.60;;
12848;SDS011;6493;50.928;7.172;2023-08-12T20:30:10;0.40;;;0.40;;
12848;SDS011;6493;50.928;7.172;2023-08-12T20:35:32;0.57;;;0.50;;
12848;SDS011;6493;50.928;7.172;2023-08-12T20:40:54;0.50;;;0.50;;
12848;SDS011;6493;50.928;7.172;2023-08-12T20:46:17;0.60;;;0.60;;
12848;SDS011;6493;50.928;7.172;2023-08-12T20:51:40;0.57;;;0.50;;
12848;SDS011;6493;50.928;7.172;2023-08-12T20:57:02;0.60;;;0.50;;
12848;SDS011;6493;50.928;7.172;2023-08-12T21:02:25;0.40;;;0.40;;
12848;SDS011;6493;50.928;7.172;2023-08-12T21:07:29;1.00;;;0.77;;
12848;SDS011;6493;50.928;7.172;2023-08-12T21:12:32;0.50;;;0.50;;
12848;SDS011;6493;50.928;7.172;2023-08-12T21:17:37;1.10;;;0.63;;
12848;SDS011;6493;50.928;7.172;2023-08-12T21:28:13;0.63;;;0.60;;
12848;SDS011;6493;50.928;7.172;2023-08-12T21:33:38;0.73;;;0.73;;
12848;SDS011;6493;50.928;7.172;2023-08-12T21:38:42;0.80;;;0.43;;
12848;SDS011;6493;50.928;7.172;2023-08-12T21:43:45;0.53;;;0.53;;
12848;SDS011;6493;50.928;7.172;2023-08-12T21:48:50;0.77;;;0.50;;
12848;SDS011;6493;50.928;7.172;2023-08-12T21:53:54;0.77;;;0.57;;
12848;SDS011;6493;50.928;7.172;2023-08-12T21:58:57;0.77;;;0.60;;
12848;SDS011;6493;50.928;7.172;2023-08-12T22:04:03;0.40;;;0.40;;
12848;SDS011;6493;50.928;7.172;2023-08-12T22:09:06;0.60;;;0.60;;
12848;SDS011;6493;50.928;7.172;2023-08-12T22:14:10;1.23;;;0.80;;
12848;SDS011;6493;50.928;7.172;2023-08-12T22:19:15;0.53;;;0.53;;
12848;SDS011;6493;50.928;7.172;2023-08-12T22:24:18;0.67;;;0.67;;
12848;SDS011;6493;50.928;7.172;2023-08-12T22:29:22;0.50;;;0.50;;
12848;SDS011;6493;50.928;7.172;2023-08-12T22:34:27;0.60;;;0.60;;
12848;SDS011;6493;50.928;7.172;2023-08-12T22:39:31;0.80;;;0.50;;
12848;SDS011;6493;50.928;7.172;2023-08-12T22:44:35;0.70;;;0.60;;
12848;SDS011;6493;50.928;7.172;2023-08-12T22:49:40;0.70;;;0.70;;
12848;SDS011;6493;50.928;7.172;2023-08-12T22:54:43;0.90;;;0.57;;
12848;SDS011;6493;50.928;7.172;2023-08-12T22:59:47;0.50;;;0.50;;
12848;SDS011;6493;50.928;7.172;2023-08-12T23:04:52;0.60;;;0.60;;
12848;SDS011;6493;50.928;7.172;2023-08-12T23:09:56;1.00;;;0.70;;
12848;SDS011;6493;50.928;7.172;2023-08-12T23:15:00;0.97;;;0.63;;
12848;SDS011;6493;50.928;7.172;2023-08-12T23:20:07;0.60;;;0.60;;
12848;SDS011;6493;50.928;7.172;2023-08-12T23:25:11;0.50;;;0.50;;
12848;SDS011;6493;50.928;7.172;2023-08-12T23:30:14;0.60;;;0.60;;
12848;SDS011;6493;50.928;7.172;2023-08-12T23:35:20;0.67;;;0.40;;
12848;SDS011;6493;50.928;7.172;2023-08-12T23:40:23;0.40;;;0.40;;
12848;SDS011;6493;50.928;7.172;2023-08-12T23:45:27;0.77;;;0.60;;
12848;SDS011;6493;50.928;7.172;2023-08-12T23:50:32;0.40;;;0.40;;
12848;SDS011;6493;50.928;7.172;2023-08-12T23:55:35;0.97;;;0.70;;
